Ratliff, Mississippi
Current Conditions -  °F | °C
As of 12:53 AM on Monday 22 Dec 2014 (Local Time) from KTUP Reporting Station
Overcast Overcast  
Wind Chill: 45°   Ceiling: 1200
Heat Index: 48°   Visibility: 8mi
Dew Point: 45°   Wind: 6mph
Humidity: 89%   Direction: 180°S
Pressure: 29.95"   Gusts: NA
Location:  34.433°N, 88.7018°W
Report Text: KTUP 220653Z AUTO 18005KT 8SM OVC012 09/07 A2995 RMK AO2 SLP142 T00890072
Loading
Personal Weather Stations






























Interactive Weather Map New forecast layout! Learn more

10-Day Weather Forecast

Advertisements
Track Severe Weather on mobile